Time;durP1;ratioP1;P1;durP2;ratioP2;P2;SDS_P1;SDS_P2;PMS_P1;PMS_P2;Temp;Humidity;BMP_temperature;BMP_pressure;BME280_temperature;BME280_humidity;BME280_pressure;Samples;Min_cycle;Max_cycle;Signal;HPM_P1;HPM_P2
2022/06/03 00:01:07;;;;;;;12.45;7.45;;;;;;;19.10;71.65;99926.66;4954926;28;20051;-84
2022/06/03 00:04:00;;;;;;;12.77;7.77;;;;;;;19.06;71.54;99931.19;4953591;29;20047;-84
2022/06/03 00:06:49;;;;;;;14.93;8.90;;;;;;;19.00;72.15;99934.00;4937802;29;20074;-84
2022/06/03 00:09:32;;;;;;;20.20;9.95;;;;;;;18.88;72.61;99939.66;4955116;29;20136;-83
2022/06/03 00:12:37;;;;;;;19.42;9.00;;;;;;;18.75;72.85;99934.69;4955326;29;20059;-82
2022/06/03 00:15:19;;;;;;;13.98;7.88;;;;;;;18.62;73.41;99922.72;4955145;28;20481;-85
2022/06/03 00:17:56;;;;;;;14.77;8.30;;;;;;;18.49;73.84;99924.00;4957017;28;20146;-82
2022/06/03 00:20:44;;;;;;;13.93;7.57;;;;;;;18.36;74.00;99919.03;4958955;29;20074;-81
2022/06/03 00:23:54;;;;;;;15.00;7.53;;;;;;;18.25;74.32;99922.91;4958602;29;20141;-83
2022/06/03 00:26:39;;;;;;;12.60;7.07;;;;;;;18.22;74.54;99921.22;4962967;28;20067;-82
2022/06/03 00:29:32;;;;;;;9.50;6.60;;;;;;;18.21;74.80;99932.69;4974864;28;20031;-82
2022/06/03 00:32:15;;;;;;;12.18;6.97;;;;;;;18.11;75.08;99933.84;4998833;28;20037;-82
2022/06/03 00:35:07;;;;;;;12.75;7.72;;;;;;;18.08;75.08;99933.94;4997085;28;20062;-83
2022/06/03 00:37:56;;;;;;;13.85;7.45;;;;;;;17.94;75.24;99928.97;4980399;28;20141;-83
2022/06/03 00:40:26;;;;;;;14.63;7.80;;;;;;;17.96;75.75;99943.91;4977524;28;20429;-83
2022/06/03 00:43:02;;;;;;;;;;;;;;;17.74;75.64;99942.66;4977076;28;20448;-83
2022/06/03 00:45:56;;;;;;;12.27;7.60;;;;;;;17.85;76.25;99942.44;4977115;28;19929;-83
2022/06/03 00:48:46;;;;;;;11.35;7.10;;;;;;;17.82;76.34;99938.09;4977139;28;20054;-83
2022/06/03 00:51:13;;;;;;;;;;;;;;;17.64;76.21;99941.16;4977771;28;20113;-84
2022/06/03 00:53:58;;;;;;;14.02;7.18;;;;;;;17.75;76.47;99953.22;4959550;28;19926;-83
2022/06/03 00:56:59;;;;;;;13.10;6.95;;;;;;;17.78;76.47;99944.34;4943912;28;20081;-84
2022/06/03 00:59:41;;;;;;;10.98;6.65;;;;;;;17.79;76.75;99943.44;4976957;28;20047;-85
2022/06/03 01:02:24;;;;;;;10.07;6.40;;;;;;;17.82;76.70;99946.03;4960216;28;20090;-83
2022/06/03 01:05:31;;;;;;;11.73;6.78;;;;;;;17.80;76.30;99937.25;4977874;28;20066;-83
2022/06/03 01:08:05;;;;;;;14.07;6.85;;;;;;;17.88;76.56;99937.94;4960123;28;20065;-82
2022/06/03 01:10:35;;;;;;;11.07;6.38;;;;;;;17.91;76.58;99932.56;4977107;28;20055;-83
2022/06/03 01:13:27;;;;;;;12.48;6.47;;;;;;;17.91;76.31;99944.94;4976951;28;20504;-83
2022/06/03 01:16:30;;;;;;;14.75;6.47;;;;;;;17.93;76.41;99940.47;4977756;28;20051;-83
2022/06/03 01:19:21;;;;;;;9.63;6.70;;;;;;;17.92;76.32;99938.75;4972354;28;20058;-84
2022/06/03 01:22:26;;;;;;;11.95;6.43;;;;;;;17.87;76.47;99937.97;4976296;28;20050;-83
2022/06/03 01:25:17;;;;;;;9.30;6.78;;;;;;;17.83;76.60;99939.81;4976273;28;20050;-83
2022/06/03 01:28:06;;;;;;;13.68;7.18;;;;;;;17.79;76.76;99922.31;4975785;28;20110;-84
2022/06/03 01:30:46;;;;;;;15.00;8.25;;;;;;;17.87;77.02;99930.91;4975640;28;20207;-83
2022/06/03 01:33:26;;;;;;;;;;;;;;;17.71;76.78;99926.91;4976817;28;20050;-84
2022/06/03 01:36:29;;;;;;;10.55;7.35;;;;;;;17.85;76.68;99923.94;4976224;28;19948;-84
2022/06/03 01:39:15;;;;;;;10.55;7.35;;;;;;;17.96;76.88;99927.16;4958100;28;20047;-84
2022/06/03 01:41:50;;;;;;;10.32;6.60;;;;;;;18.05;76.60;99926.06;4975808;28;20055;-84
2022/06/03 01:44:31;;;;;;;10.00;7.13;;;;;;;18.11;76.24;99939.13;4976569;28;20089;-85
2022/06/03 01:46:58;;;;;;;9.10;6.45;;;;;;;18.17;76.07;99934.53;4976698;28;20166;-85
2022/06/03 01:49:44;;;;;;;12.48;6.85;;;;;;;18.21;75.98;99941.47;4976346;28;20058;-86
2022/06/03 01:52:21;;;;;;;11.70;7.40;;;;;;;18.29;75.59;99920.13;4958538;28;20101;-84
2022/06/03 01:55:22;;;;;;;10.70;7.80;;;;;;;18.38;75.49;99930.44;4976080;28;20477;-85
2022/06/03 01:57:50;;;;;;;13.18;7.32;;;;;;;18.49;75.15;99926.66;4958602;28;20057;-84
2022/06/03 02:00:47;;;;;;;12.80;7.93;;;;;;;18.40;75.02;99911.91;4975770;28;20097;-84
2022/06/03 02:03:31;;;;;;;12.98;7.80;;;;;;;18.56;74.89;99912.31;4968867;28;20058;-84
2022/06/03 02:06:01;;;;;;;12.32;7.30;;;;;;;18.60;74.66;99916.63;4975708;28;20093;-83
2022/06/03 02:09:22;;;;;;;12.13;7.03;;;;;;;18.62;74.62;99918.31;4975875;28;20153;-83
2022/06/03 02:12:00;;;;;;;12.20;7.28;;;;;;;18.58;74.33;99910.50;4878342;29;20041;-83
2022/06/03 02:14:30;;;;;;;10.27;7.10;;;;;;;18.55;74.75;99919.41;4947056;28;20105;-84
2022/06/03 02:16:56;;;;;;;;;;;;;;;18.37;75.01;99912.00;4976829;28;20054;-84
2022/06/03 02:20:01;;;;;;;9.70;7.13;;;;;;;18.50;74.63;99901.91;4977076;28;19926;-83
2022/06/03 02:22:31;;;;;;;9.35;6.28;;;;;;;18.57;74.67;99896.41;4976216;28;20051;-83
2022/06/03 02:25:20;;;;;;;9.52;6.53;;;;;;;18.67;74.23;99896.13;4959693;28;20082;-82
2022/06/03 02:28:23;;;;;;;12.98;6.28;;;;;;;18.75;73.82;99895.00;4975713;28;20401;-82
2022/06/03 02:31:11;;;;;;;12.40;6.50;;;;;;;19.15;72.95;99888.53;4975594;28;20055;-83
2022/06/03 02:34:00;;;;;;;11.65;6.70;;;;;;;20.39;68.92;99893.19;4975690;28;20055;-83
2022/06/03 02:37:17;;;;;;;14.00;6.35;;;;;;;20.89;67.01;99887.84;4975096;28;20432;-83
2022/06/03 02:40:21;;;;;;;8.57;6.07;;;;;;;23.05;61.32;99880.34;4862266;29;20053;-84
2022/06/03 02:43:03;;;;;;;11.13;6.43;;;;;;;24.61;56.33;99889.38;4975176;28;20489;-82
2022/06/03 02:45:51;;;;;;;12.50;5.70;;;;;;;24.64;55.41;99891.88;4975330;28;20050;-83
2022/06/03 02:48:21;;;;;;;9.00;5.97;;;;;;;24.73;54.74;99888.69;4975389;28;20070;-84
2022/06/03 02:51:09;;;;;;;12.90;6.10;;;;;;;25.12;54.39;99891.91;4975032;28;20055;-84
2022/06/03 02:54:16;;;;;;;9.68;5.30;;;;;;;25.25;53.74;99862.69;4957526;28;20424;-83
2022/06/03 02:57:14;;;;;;;12.27;5.53;;;;;;;25.21;53.53;99882.53;4957412;28;20065;-83
2022/06/03 03:00:00;;;;;;;7.50;5.68;;;;;;;25.51;52.33;99875.44;4976232;28;20138;-84
2022/06/03 03:02:40;;;;;;;9.68;6.03;;;;;;;25.91;50.91;99877.59;4958022;28;20074;-84
2022/06/03 03:05:29;;;;;;;11.15;5.47;;;;;;;26.83;49.57;99873.75;4974907;28;20055;-83
2022/06/03 03:08:03;;;;;;;9.75;5.45;;;;;;;28.85;44.09;99869.03;4975208;28;20113;-82
2022/06/03 03:10:50;;;;;;;;;;;;;;;30.01;44.32;99868.41;4974908;28;20190;-84
2022/06/03 03:13:30;;;;;;;6.10;5.35;;;;;;;31.52;39.31;99866.25;4975109;28;19926;-84
2022/06/03 03:16:12;;;;;;;5.82;5.00;;;;;;;32.04;37.56;99862.69;4957494;28;20047;-84
2022/06/03 03:19:07;;;;;;;7.40;5.28;;;;;;;32.98;36.45;99851.72;4974734;28;20070;-84
2022/06/03 03:21:55;;;;;;;7.75;5.47;;;;;;;34.08;33.59;99864.19;4974250;28;20429;-83
2022/06/03 03:24:32;;;;;;;11.73;5.17;;;;;;;34.26;32.49;99858.88;4974791;28;20073;-86
2022/06/03 03:27:25;;;;;;;7.72;4.72;;;;;;;34.42;33.33;99852.84;4974394;28;20868;-84
2022/06/03 03:29:53;;;;;;;9.07;5.20;;;;;;;34.65;31.73;99854.19;4974406;28;20406;-85
2022/06/03 03:32:40;;;;;;;6.93;4.95;;;;;;;34.97;31.67;99838.44;4975385;28;20123;-84
2022/06/03 03:35:16;;;;;;;11.43;4.82;;;;;;;35.98;29.82;99836.34;4975434;28;20050;-86
2022/06/03 03:38:05;;;;;;;6.75;4.70;;;;;;;37.24;28.05;99831.16;4957481;28;20229;-84
2022/06/03 03:41:10;;;;;;;7.75;5.32;;;;;;;37.88;27.81;99838.66;4958604;28;20051;-85
2022/06/03 03:43:45;;;;;;;7.28;4.95;;;;;;;38.09;26.55;99843.63;4974936;28;20046;-85
2022/06/03 03:46:50;;;;;;;9.43;5.65;;;;;;;38.39;26.97;99844.72;4957332;28;20464;-84
2022/06/03 03:49:58;;;;;;;9.75;5.35;;;;;;;38.52;26.76;99838.75;4974556;28;20464;-85
2022/06/03 03:52:46;;;;;;;9.15;5.20;;;;;;;39.04;25.55;99835.44;4976115;28;20583;-83
2022/06/03 03:55:45;;;;;;;12.25;5.47;;;;;;;38.49;26.04;99833.66;4978941;28;20062;-83
2022/06/03 03:58:25;;;;;;;7.75;4.80;;;;;;;39.10;25.20;99821.06;4945872;28;20061;-89
2022/06/03 04:01:04;;;;;;;9.13;5.38;;;;;;;39.50;25.20;99826.44;4978995;28;20110;-87
2022/06/03 04:03:56;;;;;;;8.52;5.00;;;;;;;40.03;23.91;99821.84;4979301;28;20074;-85
2022/06/03 04:06:42;;;;;;;13.45;6.50;;;;;;;38.96;25.11;99810.06;4979561;28;20046;-86
2022/06/03 04:09:34;;;;;;;7.07;5.07;;;;;;;38.64;25.52;99820.97;4980926;28;20117;-82
2022/06/03 04:12:21;;;;;;;8.48;5.30;;;;;;;38.38;25.79;99810.31;4996530;28;20039;-85
2022/06/03 04:15:11;;;;;;;6.13;5.18;;;;;;;36.08;28.38;99809.91;4998471;28;20051;-83
2022/06/03 04:17:57;;;;;;;9.75;5.50;;;;;;;33.22;33.40;99821.59;4997355;28;20110;-85
2022/06/03 04:21:00;;;;;;;6.72;5.90;;;;;;;31.76;35.76;99820.13;4997229;28;20069;-80
2022/06/03 04:23:57;;;;;;;7.65;5.35;;;;;;;30.89;37.59;99812.09;4948878;28;20110;-81
2022/06/03 04:26:52;;;;;;;9.30;6.05;;;;;;;29.69;39.73;99806.28;4984190;28;20086;-80
2022/06/03 04:29:35;;;;;;;7.18;5.28;;;;;;;28.47;42.37;99805.44;4978610;28;20050;-82
2022/06/03 04:32:04;;;;;;;7.32;5.85;;;;;;;27.92;43.86;99813.75;4977236;28;20493;-81
2022/06/03 04:34:36;;;;;;;9.65;5.80;;;;;;;27.31;45.01;99813.41;4959489;28;20082;-79
2022/06/03 04:37:35;;;;;;;10.23;6.60;;;;;;;26.93;46.27;99814.09;4977021;28;20055;-79
2022/06/03 04:40:41;;;;;;;10.30;5.90;;;;;;;26.32;47.31;99812.63;4959891;28;20051;-82
2022/06/03 04:43:41;;;;;;;9.93;5.95;;;;;;;26.02;48.26;99796.66;4959132;28;20046;-80
2022/06/03 04:46:32;;;;;;;7.68;5.82;;;;;;;26.15;48.40;99800.28;4980264;28;20062;-80
2022/06/03 04:49:26;;;;;;;8.52;5.28;;;;;;;26.07;48.70;99800.78;4989188;28;20058;-81
2022/06/03 04:52:42;;;;;;;7.10;5.30;;;;;;;25.95;48.97;99790.84;4932192;28;20089;-82
2022/06/03 04:55:40;;;;;;;7.35;5.40;;;;;;;26.08;49.42;99799.81;4892879;28;20055;-82
2022/06/03 04:58:43;;;;;;;9.65;5.65;;;;;;;26.17;49.45;99797.53;4960101;28;20050;-81
2022/06/03 05:02:08;;;;;;;10.13;5.38;;;;;;;26.22;49.47;99792.72;4976786;28;20082;-82
2022/06/03 05:05:06;;;;;;;8.52;5.35;;;;;;;25.75;49.89;99792.88;4947020;28;20058;-84
2022/06/03 05:07:48;;;;;;;7.82;5.45;;;;;;;25.44;51.39;99809.03;4962344;28;20457;-83
2022/06/03 05:10:23;;;;;;;9.52;5.20;;;;;;;25.52;51.20;99810.28;4977170;28;20145;-80
2022/06/03 05:13:23;;;;;;;9.95;5.00;;;;;;;26.01;50.11;99798.47;4976529;28;20109;-80
2022/06/03 05:16:31;;;;;;;8.23;4.80;;;;;;;26.27;49.51;99799.53;4976156;28;20433;-81
2022/06/03 05:19:22;;;;;;;8.95;5.15;;;;;;;25.95;49.77;99777.44;4961036;28;20117;-78
2022/06/03 05:22:13;;;;;;;9.30;5.30;;;;;;;25.89;50.08;99765.28;4958961;28;20109;-80
2022/06/03 05:25:00;;;;;;;8.57;5.03;;;;;;;26.17;49.93;99755.56;4976356;28;20051;-81
2022/06/03 05:27:50;;;;;;;10.68;4.47;;;;;;;26.33;49.71;99748.28;4975783;28;20433;-81
2022/06/03 05:30:36;;;;;;;8.25;4.55;;;;;;;26.41;49.43;99742.41;4976750;28;20050;-85
2022/06/03 05:33:42;;;;;;;7.50;4.25;;;;;;;26.33;49.60;99734.03;4958740;28;20525;-86
2022/06/03 05:36:23;;;;;;;8.23;4.25;;;;;;;26.47;49.29;99725.97;4959219;28;20179;-83
2022/06/03 05:39:29;;;;;;;5.90;4.30;;;;;;;26.43;49.20;99736.97;4976544;28;20050;-86
2022/06/03 05:42:29;;;;;;;7.60;4.38;;;;;;;26.24;49.61;99742.63;4975897;28;20055;-85
2022/06/03 05:45:10;;;;;;;8.93;4.60;;;;;;;26.30;49.84;99739.56;4957864;28;20063;-84
2022/06/03 05:47:48;;;;;;;9.15;4.38;;;;;;;26.25;50.11;99736.34;4975051;28;20138;-84
2022/06/03 05:50:41;;;;;;;8.68;4.82;;;;;;;26.21;50.56;99754.41;4958463;28;20050;-84
2022/06/03 05:53:22;;;;;;;10.02;4.70;;;;;;;26.38;50.05;99756.00;4958870;28;20059;-85
2022/06/03 05:56:06;;;;;;;8.52;4.43;;;;;;;26.63;49.77;99775.88;4975439;28;20050;-85
2022/06/03 05:59:05;;;;;;;8.05;4.97;;;;;;;26.94;48.83;99759.53;4975835;28;20527;-84
2022/06/03 06:01:52;;;;;;;8.52;4.88;;;;;;;26.52;49.82;99747.97;4975885;28;20061;-84
2022/06/03 06:04:49;;;;;;;9.07;4.85;;;;;;;26.44;49.76;99744.91;4958918;28;20505;-85
2022/06/03 06:07:45;;;;;;;8.60;4.80;;;;;;;26.60;50.19;99758.19;4958700;28;20074;-84
2022/06/03 06:10:33;;;;;;;5.90;4.80;;;;;;;26.84;49.35;99762.91;4958359;28;20047;-85
2022/06/03 06:13:20;;;;;;;11.07;5.05;;;;;;;26.93;48.96;99765.84;4975764;28;20505;-85
2022/06/03 06:15:49;;;;;;;11.50;5.35;;;;;;;26.79;49.29;99751.66;4974912;28;20059;-87
2022/06/03 06:18:53;;;;;;;8.43;5.15;;;;;;;27.02;48.94;99759.03;4975672;28;20512;-87
2022/06/03 06:21:33;;;;;;;8.30;4.72;;;;;;;26.47;49.65;99739.34;4975968;28;20055;-85
2022/06/03 06:24:11;;;;;;;6.50;4.38;;;;;;;26.57;50.12;99760.22;4960220;28;20494;-86
2022/06/03 06:26:43;;;;;;;7.55;4.55;;;;;;;26.84;49.31;99765.59;4975444;28;20059;-84
2022/06/03 06:29:45;;;;;;;10.55;4.90;;;;;;;26.98;49.01;99757.50;4975975;28;20058;-85
2022/06/03 06:32:32;;;;;;;12.25;5.05;;;;;;;27.43;47.97;99758.09;4975768;28;20106;-85
2022/06/03 06:35:38;;;;;;;8.27;4.38;;;;;;;27.65;47.44;99745.88;4976165;28;20059;-83
2022/06/03 06:38:09;;;;;;;10.20;5.07;;;;;;;27.18;48.20;99748.97;4975422;28;20117;-84
2022/06/03 06:40:38;;;;;;;8.07;5.47;;;;;;;26.88;48.89;99767.97;4974897;28;20428;-84
2022/06/03 06:44:11;;;;;;;9.50;4.85;;;;;;;26.38;49.78;99756.00;4957787;28;20062;-84
2022/06/03 06:47:12;;;;;;;8.70;5.40;;;;;;;25.82;51.24;99761.25;4829596;29;20073;-83
2022/06/03 06:50:09;;;;;;;;;;;;;;;;;;;;;
2022/06/03 06:52:56;;;;;;;7.15;5.35;;;;;;;25.88;51.07;99758.25;4961854;28;20496;-84
2022/06/03 06:55:56;;;;;;;8.38;5.05;;;;;;;25.42;52.29;99773.50;4976992;28;20093;-84
2022/06/03 06:58:44;;;;;;;6.68;5.05;;;;;;;24.89;53.38;99738.28;4975029;28;20089;-85
2022/06/03 07:01:19;;;;;;;10.77;5.13;;;;;;;24.41;54.83;99722.22;4964553;28;20054;-83
2022/06/03 07:04:05;;;;;;;11.90;5.60;;;;;;;24.42;55.33;99761.34;4958857;28;20083;-84
2022/06/03 07:06:43;;;;;;;8.80;4.95;;;;;;;24.46;54.91;99722.00;4974412;28;20525;-85
2022/06/03 07:09:11;;;;;;;10.40;5.30;;;;;;;25.08;53.79;99748.72;4974261;28;20062;-84
2022/06/03 07:12:05;;;;;;;8.98;5.57;;;;;;;25.60;52.47;99760.81;4974303;28;20058;-84
2022/06/03 07:15:00;;;;;;;9.20;5.15;;;;;;;26.19;51.10;99756.31;4974648;28;20058;-85
2022/06/03 07:21:14;;;;;;;7.95;5.15;;;;;;;26.31;50.52;99762.72;4977948;28;20054;-84
2022/06/03 07:23:52;;;;;;;6.60;5.30;;;;;;;25.79;51.66;99750.75;4976036;28;20054;-85
2022/06/03 07:26:30;;;;;;;12.65;5.40;;;;;;;25.40;52.92;99772.72;4993702;28;20076;-83
2022/06/03 07:29:21;;;;;;;12.30;6.05;;;;;;;24.42;54.96;99765.81;4993675;28;20542;-83
2022/06/03 07:32:09;;;;;;;19.42;8.13;;;;;;;23.70;60.78;99814.06;4990184;28;20052;-84
2022/06/03 07:35:22;;;;;;;11.95;8.00;;;;;;;22.64;63.58;99813.06;4983872;28;20078;-84
2022/06/03 07:38:02;;;;;;;16.35;8.93;;;;;;;22.00;65.58;99808.84;4910554;29;20056;-87
2022/06/03 07:40:43;;;;;;;16.60;8.85;;;;;;;22.02;66.38;99791.03;4956377;28;20059;-85
2022/06/03 07:43:21;;;;;;;14.65;8.70;;;;;;;21.93;66.68;99768.38;4963777;28;20054;-85
2022/06/03 07:45:55;;;;;;;16.35;9.00;;;;;;;22.35;65.48;99787.78;4986123;28;20118;-84
2022/06/03 07:48:28;;;;;;;17.48;9.27;;;;;;;22.71;64.85;99777.22;4986850;28;20082;-86
2022/06/03 07:51:23;;;;;;;10.30;8.13;;;;;;;23.36;62.38;99784.72;4981302;28;20554;-85
2022/06/03 07:54:02;;;;;;;12.63;7.65;;;;;;;23.82;60.89;99764.56;4965664;28;20059;-84
2022/06/03 07:56:33;;;;;;;9.55;7.18;;;;;;;24.26;59.48;99769.34;4965801;28;20079;-84
2022/06/03 07:59:09;;;;;;;11.43;7.72;;;;;;;24.48;59.31;99750.34;5012584;28;20054;-83
2022/06/03 08:01:42;;;;;;;11.45;7.15;;;;;;;24.68;58.22;99762.56;4985527;28;20058;-81
2022/06/03 08:04:34;;;;;;;11.70;7.38;;;;;;;24.79;57.79;99753.94;5007073;28;20058;-83
2022/06/03 08:12:57;;;;;;;8.05;5.20;;;;;;;25.58;54.91;99754.75;4984496;28;20085;-83
2022/06/03 08:15:35;;;;;;;8.50;5.72;;;;;;;25.98;54.42;99761.19;4982110;28;20501;-84
2022/06/03 08:18:13;;;;;;;9.30;5.70;;;;;;;26.10;52.83;99755.09;4981851;28;20134;-83
2022/06/03 08:20:48;;;;;;;8.15;5.40;;;;;;;26.24;52.39;99737.28;4984723;28;20437;-83
2022/06/03 08:23:18;;;;;;;9.98;4.90;;;;;;;26.54;50.72;99747.84;4982496;28;20055;-83
2022/06/03 08:25:49;;;;;;;6.35;5.25;;;;;;;26.67;51.09;99774.72;4966076;28;20416;-83
2022/06/03 08:28:20;;;;;;;11.43;5.40;;;;;;;26.50;51.04;99773.09;4984428;28;20085;-83
2022/06/03 08:30:50;;;;;;;7.70;4.72;;;;;;;26.04;51.62;99779.53;4974587;28;20484;-83
2022/06/03 08:33:29;;;;;;;5.60;4.40;;;;;;;25.78;51.37;99777.59;4991821;28;20113;-85
2022/06/03 08:35:56;;;;;;;5.22;4.60;;;;;;;25.58;51.66;99763.63;4975548;28;20054;-83
2022/06/03 08:38:47;;;;;;;6.47;4.22;;;;;;;25.47;51.49;99742.88;4993794;28;20472;-84
2022/06/03 08:41:22;;;;;;;6.57;4.40;;;;;;;25.37;52.65;99775.59;4995348;28;20077;-84
2022/06/03 08:44:21;;;;;;;5.50;5.00;;;;;;;24.95;53.34;99780.63;4992085;28;20090;-83
2022/06/03 08:47:18;;;;;;;11.45;7.43;;;;;;;24.68;54.02;99759.06;4984976;28;20043;-84
2022/06/03 08:49:56;;;;;;;6.28;5.00;;;;;;;24.93;54.18;99806.59;4982892;28;20050;-83
2022/06/03 08:52:45;;;;;;;8.68;5.22;;;;;;;25.05;53.60;99799.69;4983080;28;20073;-83
2022/06/03 08:55:40;;;;;;;8.85;5.40;;;;;;;24.78;54.72;99791.41;4975012;28;20058;-83
2022/06/03 08:58:19;;;;;;;8.85;5.55;;;;;;;24.85;55.09;99799.00;4985375;28;20051;-83
2022/06/03 09:00:59;;;;;;;9.88;5.40;;;;;;;24.94;54.79;99800.31;4977036;28;20082;-84
2022/06/03 09:03:32;;;;;;;10.30;5.05;;;;;;;25.06;53.64;99796.03;4975971;28;20082;-83
2022/06/03 09:06:23;;;;;;;6.60;5.00;;;;;;;24.91;55.10;99804.00;4976984;28;20113;-83
2022/06/03 09:08:59;;;;;;;8.63;5.30;;;;;;;24.60;55.05;99788.84;4969140;28;20046;-82
2022/06/03 09:11:34;;;;;;;9.45;5.28;;;;;;;24.62;54.88;99816.31;4992849;28;20054;-82
2022/06/03 09:14:10;;;;;;;6.32;4.90;;;;;;;24.36;56.05;99819.53;4989623;28;20053;-82
2022/06/03 09:16:40;;;;;;;9.02;5.95;;;;;;;24.29;56.73;99832.34;4985473;28;20063;-83
2022/06/03 09:19:19;;;;;;;9.73;5.50;;;;;;;24.20;55.57;99822.16;4966759;28;20097;-84
2022/06/03 09:21:51;;;;;;;;;;;;;;;24.10;56.14;99824.47;4987131;28;20054;-82
2022/06/03 09:24:27;;;;;;;7.57;4.97;;;;;;;24.08;55.43;99811.19;4986391;28;19926;-83
2022/06/03 09:26:57;;;;;;;13.07;4.00;;;;;;;23.80;55.68;99832.28;4931157;28;1664629;-86
2022/06/03 09:29:26;;;;;;;10.20;4.25;;;;;;;23.63;55.44;99817.97;4994502;28;20054;-83
2022/06/03 09:32:01;;;;;;;7.65;3.97;;;;;;;23.84;55.08;99845.38;4975778;28;20061;-84
2022/06/03 09:34:45;;;;;;;7.03;4.15;;;;;;;24.11;55.49;99847.53;4958446;28;20047;-84
2022/06/03 09:37:30;;;;;;;11.43;5.05;;;;;;;24.36;54.88;99839.06;4975111;28;20058;-83
2022/06/03 09:40:02;;;;;;;13.10;4.85;;;;;;;24.26;54.82;99809.38;4975567;28;20157;-83
2022/06/03 09:42:33;;;;;;;10.25;4.80;;;;;;;24.44;54.83;99833.34;4975959;28;20086;-82
2022/06/03 09:45:05;;;;;;;7.80;4.47;;;;;;;24.53;54.13;99819.50;4976778;28;20401;-84
2022/06/03 09:47:35;;;;;;;8.57;4.40;;;;;;;24.41;54.31;99817.47;4975440;28;20499;-85
2022/06/03 09:50:05;;;;;;;11.65;5.07;;;;;;;24.28;54.41;99804.78;4957824;28;20113;-87
2022/06/03 09:52:33;;;;;;;6.85;4.97;;;;;;;24.75;54.24;99812.97;4949945;28;20055;-82
2022/06/03 09:55:11;;;;;;;11.30;5.88;;;;;;;25.53;52.40;99811.16;4971009;28;20102;-83
2022/06/03 09:57:42;;;;;;;7.90;4.90;;;;;;;25.63;51.61;99806.97;4975856;28;20537;-83
2022/06/03 10:00:21;;;;;;;5.93;5.18;;;;;;;25.54;51.55;99797.69;4975487;28;20420;-84
2022/06/03 10:02:52;;;;;;;8.95;5.68;;;;;;;25.43;52.33;99802.81;4958878;28;20153;-83
2022/06/03 10:05:20;;;;;;;6.72;5.47;;;;;;;25.05;52.92;99797.88;4975592;28;20497;-83
2022/06/03 10:07:54;;;;;;;9.20;6.40;;;;;;;24.73;54.27;99794.34;4976640;28;20086;-85
2022/06/03 10:13:12;;;;;;;9.45;6.20;;;;;;;25.20;52.69;99760.56;4995199;28;20086;-84
2022/06/03 10:15:47;;;;;;;9.48;6.50;;;;;;;25.45;52.53;99792.91;4998528;28;20058;-84
2022/06/03 10:18:15;;;;;;;9.27;6.55;;;;;;;25.46;52.36;99781.25;4991912;28;20061;-83
2022/06/03 10:20:46;;;;;;;9.73;6.63;;;;;;;25.26;52.59;99768.22;4971851;28;20062;-84
2022/06/03 10:23:14;;;;;;;9.85;6.55;;;;;;;25.33;52.85;99785.59;4967823;28;20484;-84
2022/06/03 10:26:03;;;;;;;8.43;6.75;;;;;;;25.10;52.84;99794.91;4968406;28;20057;-86
2022/06/03 10:28:39;;;;;;;10.80;7.43;;;;;;;25.02;53.09;99781.16;4974418;28;20497;-84
2022/06/03 10:31:13;;;;;;;11.02;7.07;;;;;;;24.98;52.71;99792.97;4980721;28;20499;-84
2022/06/03 10:33:52;;;;;;;9.32;7.10;;;;;;;24.53;53.53;99787.47;4983771;28;20042;-84
2022/06/03 10:36:35;;;;;;;8.85;6.63;;;;;;;24.29;54.24;99792.31;4967646;28;20405;-84
2022/06/03 10:39:04;;;;;;;9.30;6.63;;;;;;;23.96;55.04;99811.00;4970075;28;20050;-83
2022/06/03 10:41:33;;;;;;;7.60;6.33;;;;;;;23.51;55.52;99818.59;4975238;28;20070;-83
2022/06/03 10:44:08;;;;;;;9.10;6.15;;;;;;;23.08;56.84;99815.41;4988226;28;20293;-85
2022/06/03 10:46:35;;;;;;;10.82;7.45;;;;;;;22.76;56.72;99817.81;4985500;28;20046;-84
2022/06/03 10:49:15;;;;;;;9.15;6.18;;;;;;;22.79;56.72;99827.44;4959194;28;20109;-85
2022/06/03 11:03:05;;;;;;;10.32;7.68;;;;;;;23.78;53.58;99808.34;4962831;28;20394;-83
2022/06/03 11:05:37;;;;;;;7.43;6.50;;;;;;;24.22;52.75;99839.84;4974910;28;20059;-83
2022/06/03 11:08:09;;;;;;;8.10;6.90;;;;;;;24.43;52.15;99794.22;4974640;28;20145;-82
2022/06/03 11:10:50;;;;;;;10.60;7.43;;;;;;;25.03;50.82;99836.31;4975259;28;20057;-85
2022/06/03 11:13:30;;;;;;;13.13;9.82;;;;;;;25.13;49.91;99830.34;4941378;28;20086;-83
2022/06/03 11:16:25;;;;;;;11.15;8.98;;;;;;;25.01;50.92;99820.38;4980635;28;20087;-83
2022/06/03 11:18:53;;;;;;;13.82;8.55;;;;;;;25.56;49.64;99826.19;4974169;28;20054;-84
2022/06/03 11:21:24;;;;;;;9.82;6.35;;;;;;;25.45;48.89;99757.28;4973671;28;20086;-84
2022/06/03 11:23:58;;;;;;;7.57;6.32;;;;;;;25.90;48.50;99815.19;4957148;28;20082;-84
2022/06/03 11:26:42;;;;;;;10.18;6.75;;;;;;;25.65;49.04;99813.09;4973800;28;20065;-84
2022/06/03 11:29:20;;;;;;;10.45;7.20;;;;;;;25.35;49.49;99821.13;4954190;29;20114;-83
2022/06/03 11:31:52;;;;;;;9.52;6.95;;;;;;;25.13;49.71;99803.63;4956900;29;20055;-83
2022/06/03 11:34:27;;;;;;;8.27;7.05;;;;;;;25.09;50.21;99812.78;4953816;29;20055;-85
2022/06/03 11:37:01;;;;;;;10.07;6.80;;;;;;;25.10;49.23;99805.63;4955106;28;20051;-83
2022/06/03 11:39:45;;;;;;;8.15;6.38;;;;;;;25.08;49.30;99808.41;4955476;29;20058;-84
2022/06/03 11:42:28;;;;;;;9.05;6.40;;;;;;;25.00;49.07;99802.63;4958086;28;20055;-84
2022/06/03 11:45:11;;;;;;;10.32;6.30;;;;;;;24.80;49.61;99813.56;4962130;29;20492;-85
2022/06/03 11:47:58;;;;;;;9.27;6.50;;;;;;;24.48;50.18;99810.88;4963418;29;20062;-82
2022/06/03 11:50:29;;;;;;;10.00;7.20;;;;;;;24.69;49.86;99819.50;4960941;29;20078;-83
2022/06/03 11:53:07;;;;;;;12.80;7.75;;;;;;;24.45;50.48;99803.88;4955249;28;20051;-83
2022/06/03 11:55:38;;;;;;;8.75;6.63;;;;;;;24.03;50.36;99767.91;4953922;29;20126;-84
2022/06/03 11:58:22;;;;;;;9.77;5.97;;;;;;;24.04;50.99;99811.44;4954690;29;20560;-84
2022/06/03 12:00:58;;;;;;;8.75;5.85;;;;;;;24.14;50.90;99810.03;4953150;29;20550;-83
2022/06/03 12:03:59;;;;;;;10.45;5.93;;;;;;;24.25;50.58;99836.13;4954451;29;20506;-83
2022/06/03 12:06:47;;;;;;;8.50;6.10;;;;;;;23.88;51.11;99819.41;4954129;28;20051;-84
2022/06/03 12:09:38;;;;;;;6.72;5.00;;;;;;;23.66;51.17;99819.59;4954382;29;20055;-83
2022/06/03 12:15:36;;;;;;;10.07;5.35;;;;;;;23.38;50.68;99817.50;4957785;29;20406;-83
2022/06/03 12:18:07;;;;;;;7.25;4.88;;;;;;;23.56;49.91;99831.72;4957006;29;20059;-83
2022/06/03 12:20:47;;;;;;;4.53;4.13;;;;;;;23.57;49.39;99825.41;4958446;29;20081;-84
2022/06/03 12:23:22;;;;;;;8.88;5.22;;;;;;;23.61;49.41;99829.66;4941636;29;20106;-83
2022/06/03 12:26:03;;;;;;;21.02;10.07;;;;;;;23.62;49.14;99845.59;4958212;29;20138;-84
2022/06/03 12:28:52;;;;;;;9.43;5.00;;;;;;;23.37;48.90;99861.09;4956447;29;20062;-84
2022/06/03 12:31:56;;;;;;;8.43;5.05;;;;;;;22.81;49.84;99860.19;4958150;28;20081;-83
2022/06/03 12:34:27;;;;;;;14.18;7.57;;;;;;;22.78;50.60;99870.97;4926913;28;20502;-85
2022/06/03 12:37:21;;;;;;;12.98;5.72;;;;;;;22.80;50.71;99859.34;4956813;29;20063;-85
2022/06/03 12:40:20;;;;;;;11.98;6.95;;;;;;;22.83;50.87;99871.63;4957036;29;20047;-85
2022/06/03 12:42:48;;;;;;;9.10;6.18;;;;;;;23.08;50.45;99877.56;4957094;29;20055;-85
2022/06/03 12:45:27;;;;;;;12.95;6.15;;;;;;;23.05;50.80;99882.16;4969664;28;20410;-83
2022/06/03 12:47:55;;;;;;;;;;;;;;;22.76;51.08;99894.13;4969060;28;20502;-83
2022/06/03 12:50:34;;;;;;;8.80;6.00;;;;;;;22.42;51.20;99899.22;4963136;28;20384;-85
2022/06/03 12:53:41;;;;;;;11.45;8.02;;;;;;;22.18;51.40;99913.59;4964569;28;20061;-85
2022/06/03 12:56:20;;;;;;;16.38;7.20;;;;;;;21.97;51.92;99907.41;4956938;28;20138;-85
2022/06/03 12:59:07;;;;;;;14.68;6.30;;;;;;;21.59;52.07;99883.28;4966381;28;20106;-83
2022/06/03 13:01:44;;;;;;;12.85;8.68;;;;;;;21.73;52.25;99915.47;4943390;29;20452;-86
2022/06/03 13:04:44;;;;;;;12.57;6.82;;;;;;;21.73;51.77;99926.13;4972001;28;20126;-86
2022/06/03 13:07:37;;;;;;;13.52;8.25;;;;;;;21.50;51.52;99932.38;4957746;28;20078;-86
2022/06/03 13:10:08;;;;;;;14.13;8.68;;;;;;;21.47;51.65;99948.44;4956912;29;20538;-84
2022/06/03 13:12:35;;;;;;;10.18;5.43;;;;;;;21.63;51.47;99962.84;4958849;29;20158;-83
2022/06/03 13:15:19;;;;;;;9.18;5.65;;;;;;;21.66;50.97;99964.50;4961456;28;20055;-84
2022/06/03 13:20:38;;;;;;;10.45;5.93;;;;;;;21.80;50.94;99978.09;4958812;28;20052;-85